Time;durP1;ratioP1;P1;durP2;ratioP2;P2;SDS_P1;SDS_P2;PMS_P1;PMS_P2;Temp;Humidity;BMP_temperature;BMP_pressure;BME280_temperature;BME280_humidity;BME280_pressure;Samples;Min_cycle;Max_cycle;Signal;HPM_P1;HPM_P2
2022/12/02 00:00:49;;;;;;;61.30;43.67;;;5.30;99.90;;;;;;5029905;28;20029;-76
2022/12/02 00:03:19;;;;;;;61.28;43.97;;;5.40;99.90;;;;;;5047682;28;20138;-76
2022/12/02 00:05:48;;;;;;;59.53;46.77;;;5.30;99.90;;;;;;5044465;28;20079;-75
2022/12/02 00:08:19;;;;;;;74.75;48.40;;;5.40;99.90;;;;;;5027514;28;20025;-76
2022/12/02 00:10:46;;;;;;;60.20;44.92;;;5.30;99.90;;;;;;5027949;28;20026;-76
2022/12/02 00:13:21;;;;;;;66.90;44.08;;;5.30;99.90;;;;;;5042790;28;20026;-76
2022/12/02 00:15:58;;;;;;;59.60;44.47;;;5.30;99.90;;;;;;5028141;28;20029;-77
2022/12/02 00:18:24;;;;;;;61.53;45.38;;;5.30;99.90;;;;;;5047403;28;20174;-76
2022/12/02 00:20:50;;;;;;;71.97;45.83;;;5.30;99.90;;;;;;5047669;28;20025;-76
2022/12/02 00:23:17;;;;;;;56.83;44.25;;;5.30;99.90;;;;;;5047210;28;20387;-76
2022/12/02 00:25:50;;;;;;;67.65;46.60;;;5.30;99.90;;;;;;5045698;28;20112;-76
2022/12/02 00:28:16;;;;;;;57.33;41.35;;;5.20;99.90;;;;;;5031783;28;20059;-76
2022/12/02 00:30:42;;;;;;;56.50;41.22;;;5.20;99.90;;;;;;5045784;28;20049;-76
2022/12/02 00:33:08;;;;;;;60.95;46.35;;;5.20;99.90;;;;;;5045546;28;20096;-77
2022/12/02 00:35:34;;;;;;;54.58;43.05;;;5.20;99.90;;;;;;5045819;28;20030;-77
2022/12/02 00:38:00;;;;;;;67.07;43.28;;;5.20;99.90;;;;;;5028140;28;20471;-76
2022/12/02 00:40:26;;;;;;;74.70;48.15;;;5.20;99.90;;;;;;5025803;28;20053;-76
2022/12/02 00:42:53;;;;;;;58.17;41.22;;;5.30;99.90;;;;;;5026472;28;20041;-76
2022/12/02 00:48:03;;;;;;;59.10;40.58;;;5.30;99.90;;;;;;5026924;28;20065;-76
2022/12/02 00:50:29;;;;;;;50.30;40.45;;;5.30;99.90;;;;;;5042077;28;20034;-76
2022/12/02 00:52:56;;;;;;;65.30;46.10;;;5.20;99.90;;;;;;5027024;28;20057;-76
2022/12/02 00:55:22;;;;;;;70.93;46.85;;;5.20;99.90;;;;;;5042138;28;20022;-76
2022/12/02 00:57:48;;;;;;;58.03;42.88;;;5.20;99.90;;;;;;5041769;28;20386;-76
2022/12/02 01:00:15;;;;;;;49.53;38.92;;;5.20;99.90;;;;;;5045391;28;20017;-76
2022/12/02 01:02:40;;;;;;;69.90;44.40;;;5.20;99.90;;;;;;5046274;28;20039;-76
2022/12/02 01:05:07;;;;;;;63.83;45.17;;;5.20;99.90;;;;;;5028545;28;20077;-76
2022/12/02 01:07:33;;;;;;;57.08;42.20;;;5.20;99.90;;;;;;5044185;28;20556;-76
2022/12/02 01:09:59;;;;;;;62.85;40.67;;;5.10;99.90;;;;;;5046550;28;20034;-76
2022/12/02 01:12:25;;;;;;;60.53;41.45;;;4.90;99.90;;;;;;5045007;28;20029;-76
2022/12/02 01:14:51;;;;;;;65.35;41.05;;;4.90;99.90;;;;;;5045847;28;20057;-76
2022/12/02 01:17:17;;;;;;;63.08;40.00;;;4.80;99.90;;;;;;5028527;28;20030;-76
2022/12/02 01:19:43;;;;;;;59.05;40.28;;;4.70;99.90;;;;;;5044767;28;20068;-76
2022/12/02 01:22:08;;;;;;;54.03;38.22;;;4.60;99.90;;;;;;5046377;28;20030;-76
2022/12/02 01:24:35;;;;;;;69.30;39.92;;;4.60;99.90;;;;;;5014621;28;20030;-76
2022/12/02 01:27:01;;;;;;;51.30;38.83;;;4.60;99.90;;;;;;5025062;28;20030;-76
2022/12/02 01:29:26;;;;;;;63.05;43.63;;;4.50;99.90;;;;;;5025046;28;20040;-76
2022/12/02 01:31:54;;;;;;;64.43;43.33;;;4.50;99.90;;;;;;5026360;28;20026;-76
2022/12/02 01:34:20;;;;;;;62.00;43.42;;;4.50;99.90;;;;;;5041450;28;20030;-76
2022/12/02 01:36:46;;;;;;;54.15;39.75;;;4.50;99.90;;;;;;5025203;28;20101;-76
2022/12/02 01:39:11;;;;;;;53.80;39.35;;;4.40;99.90;;;;;;5024529;28;20052;-76
2022/12/02 01:41:37;;;;;;;55.58;39.97;;;4.50;99.90;;;;;;5026195;28;20038;-76
2022/12/02 01:44:03;;;;;;;46.10;38.25;;;4.50;99.90;;;;;;5033606;28;20044;-76
2022/12/02 01:46:29;;;;;;;58.25;40.92;;;4.50;99.90;;;;;;5044582;28;20083;-76
2022/12/02 01:48:55;;;;;;;59.30;40.42;;;4.50;99.90;;;;;;5045546;28;20033;-76
2022/12/02 01:51:21;;;;;;;54.83;38.30;;;4.50;99.90;;;;;;5044695;28;20022;-76
2022/12/02 01:53:48;;;;;;;59.45;38.70;;;4.50;99.90;;;;;;5039186;28;20076;-76
2022/12/02 01:56:14;;;;;;;54.72;36.50;;;4.50;99.90;;;;;;5025989;28;20038;-76
2022/12/02 01:58:39;;;;;;;56.35;38.80;;;4.50;99.90;;;;;;5024806;28;20037;-76
2022/12/02 02:01:25;;;;;;;57.58;37.90;;;4.40;99.90;;;;;;5040956;28;20045;-76
2022/12/02 02:03:52;;;;;;;45.60;35.95;;;4.50;99.90;;;;;;5041035;28;20080;-76
2022/12/02 02:06:18;;;;;;;57.00;39.67;;;4.50;99.90;;;;;;5024541;28;20494;-76
2022/12/02 02:08:45;;;;;;;47.80;37.78;;;4.40;99.90;;;;;;5013584;28;20565;-76
2022/12/02 02:11:11;;;;;;;57.33;37.40;;;4.40;99.90;;;;;;4994237;28;20542;-76
2022/12/02 02:13:37;;;;;;;53.65;38.20;;;4.40;99.90;;;;;;4971720;28;20035;-76
2022/12/02 02:16:03;;;;;;;50.15;36.63;;;4.40;99.90;;;;;;5003937;28;20030;-76
2022/12/02 02:18:29;;;;;;;56.28;40.58;;;4.30;99.90;;;;;;4987774;28;20046;-76
2022/12/02 02:20:57;;;;;;;57.58;39.65;;;4.30;99.90;;;;;;5014513;28;20549;-76
2022/12/02 02:23:25;;;;;;;45.40;32.08;;;4.20;99.90;;;;;;5007270;28;20105;-76
2022/12/02 02:25:58;;;;;;;44.65;35.25;;;4.20;99.90;;;;;;5007295;28;20050;-76
2022/12/02 02:28:29;;;;;;;45.88;30.98;;;4.20;99.90;;;;;;5006907;28;20145;-76
2022/12/02 02:30:56;;;;;;;48.38;34.40;;;4.20;99.90;;;;;;5022899;28;20073;-76
2022/12/02 02:33:28;;;;;;;44.92;31.23;;;4.20;99.90;;;;;;5007114;28;20041;-76
2022/12/02 02:35:55;;;;;;;45.92;32.60;;;4.20;99.90;;;;;;5007172;28;20022;-76
2022/12/02 02:38:23;;;;;;;41.63;31.73;;;4.20;99.90;;;;;;5007045;28;20042;-75
2022/12/02 02:40:51;;;;;;;53.80;36.45;;;4.10;99.90;;;;;;5023782;28;20101;-75
2022/12/02 02:43:20;;;;;;;45.85;32.08;;;4.20;99.90;;;;;;5024114;28;20034;-76
2022/12/02 02:45:48;;;;;;;55.38;34.28;;;4.20;99.90;;;;;;5040863;28;20026;-76
2022/12/02 02:48:15;;;;;;;42.40;31.90;;;4.30;99.90;;;;;;5024454;28;20030;-76
2022/12/02 02:50:43;;;;;;;38.15;32.03;;;4.20;99.90;;;;;;5040724;28;20561;-76
2022/12/02 02:53:11;;;;;;;45.78;35.40;;;4.10;99.90;;;;;;5024040;28;20053;-76
2022/12/02 02:55:37;;;;;;;47.78;33.63;;;4.10;99.90;;;;;;5024276;28;20026;-75
2022/12/02 02:58:17;;;;;;;43.97;32.05;;;4.10;99.90;;;;;;5024134;28;20030;-76
2022/12/02 03:01:09;;;;;;;46.15;33.15;;;4.10;99.90;;;;;;5032398;28;20049;-76
2022/12/02 03:03:44;;;;;;;43.03;33.47;;;4.10;99.90;;;;;;5040273;28;20051;-76
2022/12/02 03:06:13;;;;;;;44.70;32.67;;;4.10;99.90;;;;;;5044167;28;20026;-76
2022/12/02 03:08:43;;;;;;;38.13;31.23;;;4.10;99.90;;;;;;5031014;28;20037;-76
2022/12/02 03:11:10;;;;;;;50.33;33.53;;;4.10;99.90;;;;;;5047247;28;20071;-76
2022/12/02 03:13:38;;;;;;;44.40;31.35;;;4.10;99.90;;;;;;5048767;28;20343;-76
2022/12/02 03:16:07;;;;;;;40.17;30.55;;;4.10;99.90;;;;;;5048600;28;20032;-76
2022/12/02 03:18:34;;;;;;;49.75;35.35;;;4.00;99.90;;;;;;5048451;28;20091;-76
2022/12/02 03:21:00;;;;;;;46.90;34.65;;;4.00;99.90;;;;;;5044226;28;20061;-76
2022/12/02 03:23:27;;;;;;;42.47;33.85;;;4.00;99.90;;;;;;5046797;28;20037;-76
2022/12/02 03:25:53;;;;;;;45.55;30.45;;;4.00;99.90;;;;;;5047397;28;20029;-76
2022/12/02 03:28:19;;;;;;;44.53;33.13;;;4.00;99.90;;;;;;5046902;28;20060;-76
2022/12/02 03:30:44;;;;;;;45.28;31.63;;;4.00;99.90;;;;;;5027103;28;20022;-76
2022/12/02 03:33:11;;;;;;;48.95;32.38;;;4.00;99.90;;;;;;5028612;28;20034;-76
2022/12/02 03:35:37;;;;;;;45.38;35.13;;;4.00;99.90;;;;;;5043681;28;20030;-76
2022/12/02 03:38:03;;;;;;;45.20;32.72;;;3.90;99.90;;;;;;5043493;28;20552;-76
2022/12/02 03:40:29;;;;;;;48.50;32.38;;;3.90;99.90;;;;;;5027288;28;20034;-76
2022/12/02 03:42:55;;;;;;;54.55;36.78;;;3.90;99.90;;;;;;5046679;28;20041;-76
2022/12/02 03:45:21;;;;;;;52.17;38.63;;;3.90;99.90;;;;;;5014143;28;20040;-76
2022/12/02 03:47:47;;;;;;;43.40;32.67;;;3.90;99.90;;;;;;5046824;28;20084;-76
2022/12/02 03:50:13;;;;;;;53.05;35.80;;;3.80;99.90;;;;;;5047870;28;20029;-75
2022/12/02 03:52:39;;;;;;;48.53;34.75;;;3.80;99.90;;;;;;5058083;28;20127;-76
2022/12/02 03:55:07;;;;;;;43.35;31.48;;;3.80;99.90;;;;;;5067969;28;20124;-76
2022/12/02 03:57:34;;;;;;;49.28;34.05;;;3.80;99.90;;;;;;5067785;28;20035;-76
2022/12/02 04:00:00;;;;;;;38.63;29.33;;;3.70;99.90;;;;;;5033691;28;20057;-76
2022/12/02 04:02:26;;;;;;;45.08;29.77;;;3.70;99.90;;;;;;5043382;28;20126;-75
2022/12/02 04:04:52;;;;;;;46.05;30.33;;;3.70;99.90;;;;;;5029463;28;20100;-75
2022/12/02 04:07:18;;;;;;;42.70;29.38;;;3.70;99.90;;;;;;5032853;28;20034;-76
2022/12/02 04:09:44;;;;;;;53.45;32.75;;;3.70;99.90;;;;;;5046164;28;20040;-76
2022/12/02 04:12:09;;;;;;;43.35;29.63;;;3.80;99.90;;;;;;5032683;28;20037;-76
2022/12/02 04:14:35;;;;;;;34.85;28.13;;;3.70;99.90;;;;;;5043052;28;20056;-76
2022/12/02 04:17:01;;;;;;;48.25;33.80;;;3.70;99.90;;;;;;5010148;28;20022;-75
2022/12/02 04:19:27;;;;;;;48.90;30.13;;;3.70;99.90;;;;;;5026434;28;20065;-75
2022/12/02 04:21:52;;;;;;;36.95;28.35;;;3.60;99.90;;;;;;5036411;28;20017;-75
2022/12/02 04:24:18;;;;;;;35.38;29.27;;;3.70;99.90;;;;;;5046169;28;20443;-75
2022/12/02 04:26:44;;;;;;;44.17;27.48;;;3.60;99.90;;;;;;5045743;28;20038;-76
2022/12/02 04:29:10;;;;;;;39.15;31.23;;;3.60;99.90;;;;;;5047248;28;20095;-76
2022/12/02 04:31:36;;;;;;;39.83;27.58;;;3.60;99.90;;;;;;5038443;28;20093;-76
2022/12/02 04:34:02;;;;;;;42.50;30.42;;;3.60;99.90;;;;;;5025946;28;20022;-76
2022/12/02 04:36:27;;;;;;;34.78;27.55;;;3.60;99.90;;;;;;5027480;28;20034;-75
2022/12/02 04:38:53;;;;;;;33.92;27.42;;;3.60;99.90;;;;;;5025591;28;20388;-76
2022/12/02 04:41:19;;;;;;;36.35;27.98;;;3.60;99.90;;;;;;5032661;28;20033;-75
2022/12/02 04:43:45;;;;;;;39.38;29.65;;;3.70;99.90;;;;;;5046993;28;20131;-75
2022/12/02 04:46:11;;;;;;;47.42;30.20;;;3.60;99.90;;;;;;5046914;28;20057;-75
2022/12/02 04:48:37;;;;;;;35.25;28.42;;;3.60;99.90;;;;;;5046718;28;20108;-76
2022/12/02 04:51:02;;;;;;;36.05;29.40;;;3.60;99.90;;;;;;5045362;28;20097;-75
2022/12/02 04:53:28;;;;;;;45.42;32.70;;;3.60;99.90;;;;;;5046450;28;20029;-76
2022/12/02 04:55:54;;;;;;;43.35;29.77;;;3.60;99.90;;;;;;5046569;28;20026;-76
2022/12/02 04:58:20;;;;;;;46.22;29.75;;;3.60;99.90;;;;;;5046869;28;20029;-75
2022/12/02 05:00:46;;;;;;;42.92;31.48;;;3.60;99.90;;;;;;5049342;28;20043;-75
2022/12/02 05:03:12;;;;;;;52.28;31.88;;;3.60;99.90;;;;;;5044926;28;20111;-76
2022/12/02 05:05:37;;;;;;;40.67;30.38;;;3.60;99.90;;;;;;5045501;28;20041;-75
2022/12/02 05:08:04;;;;;;;35.95;30.38;;;3.60;99.90;;;;;;5028827;28;20042;-75
2022/12/02 05:10:30;;;;;;;45.15;32.65;;;3.60;99.90;;;;;;5029587;28;20441;-76
2022/12/02 05:12:56;;;;;;;50.83;34.95;;;3.60;99.90;;;;;;5035400;28;20071;-76
2022/12/02 05:15:22;;;;;;;52.25;39.47;;;3.60;99.90;;;;;;5036452;28;20033;-76
2022/12/02 05:17:48;;;;;;;65.93;37.40;;;3.60;99.90;;;;;;5033952;28;20117;-75
2022/12/02 05:20:13;;;;;;;57.50;36.90;;;3.60;99.90;;;;;;5036768;28;20036;-76
2022/12/02 05:22:39;;;;;;;51.03;33.47;;;3.60;99.90;;;;;;5036461;28;20037;-75
2022/12/02 05:25:05;;;;;;;43.50;32.45;;;3.60;99.90;;;;;;5031422;28;20102;-75
2022/12/02 05:27:31;;;;;;;57.40;34.65;;;3.50;99.90;;;;;;5033884;28;20104;-76
2022/12/02 05:30:00;;;;;;;47.58;32.25;;;3.50;99.90;;;;;;5040688;28;20045;-75
2022/12/02 05:32:27;;;;;;;;;;;3.50;99.90;;;;;;5030900;28;20030;-76
2022/12/02 05:34:53;;;;;;;44.42;31.83;;;3.50;99.90;;;;;;5025960;28;19914;-75
2022/12/02 05:37:19;;;;;;;52.63;33.65;;;3.60;99.90;;;;;;5024440;28;20022;-75
2022/12/02 05:39:45;;;;;;;50.25;32.00;;;3.60;99.90;;;;;;5014200;28;20030;-76
2022/12/02 05:42:13;;;;;;;41.35;31.58;;;3.60;99.90;;;;;;5022645;28;20061;-76
2022/12/02 05:44:39;;;;;;;46.97;32.67;;;3.60;99.90;;;;;;5033970;28;20048;-75
2022/12/02 05:47:10;;;;;;;50.40;32.85;;;3.60;99.90;;;;;;5028307;28;20044;-75
2022/12/02 05:49:37;;;;;;;44.22;27.77;;;3.70;99.90;;;;;;5045712;28;20033;-75
2022/12/02 05:52:23;;;;;;;48.85;32.15;;;3.70;99.90;;;;;;5036761;28;20033;-76
2022/12/02 05:54:55;;;;;;;42.95;27.10;;;3.60;99.90;;;;;;5024476;28;20109;-76
2022/12/02 05:57:24;;;;;;;54.28;32.47;;;3.60;99.90;;;;;;5030257;28;20037;-76
2022/12/02 06:00:00;;;;;;;43.63;29.67;;;3.60;99.90;;;;;;5037492;28;20069;-75
2022/12/02 06:02:35;;;;;;;39.53;28.30;;;3.60;99.90;;;;;;5040083;28;20068;-76
2022/12/02 06:05:05;;;;;;;44.30;29.58;;;3.60;99.90;;;;;;5035063;28;20515;-75
2022/12/02 06:07:30;;;;;;;;;;;3.60;99.90;;;;;;5024529;28;20030;-76
2022/12/02 06:09:56;;;;;;;57.65;34.72;;;3.60;99.90;;;;;;5025876;28;19912;-76
2022/12/02 06:12:22;;;;;;;39.35;25.92;;;3.60;99.90;;;;;;5021306;28;20033;-77
2022/12/02 06:14:53;;;;;;;37.90;28.52;;;3.50;99.90;;;;;;5033311;28;20044;-76
2022/12/02 06:17:20;;;;;;;40.70;29.77;;;3.50;99.90;;;;;;5026413;28;20064;-76
2022/12/02 06:19:56;;;;;;;38.38;26.83;;;3.50;99.90;;;;;;5028183;28;20026;-76
2022/12/02 06:22:28;;;;;;;34.70;21.50;;;3.40;99.90;;;;;;5024122;28;20030;-76
2022/12/02 06:24:56;;;;;;;39.90;27.83;;;3.40;99.90;;;;;;5013176;28;20088;-76
2022/12/02 06:27:22;;;;;;;35.35;23.73;;;3.40;99.90;;;;;;5010302;28;20025;-77
2022/12/02 06:29:57;;;;;;;36.58;21.40;;;3.40;99.90;;;;;;5011197;28;20065;-76
2022/12/02 06:32:28;;;;;;;31.52;24.10;;;3.40;99.90;;;;;;5025507;28;20074;-76
2022/12/02 06:34:54;;;;;;;35.90;26.48;;;3.40;99.90;;;;;;5037550;28;20116;-76
2022/12/02 06:37:29;;;;;;;40.22;25.50;;;3.40;99.90;;;;;;5026602;28;20021;-76
2022/12/02 06:39:57;;;;;;;38.75;25.48;;;3.40;99.90;;;;;;5047977;28;20029;-77
2022/12/02 06:42:30;;;;;;;40.53;27.00;;;3.40;99.90;;;;;;5033930;28;20099;-76
2022/12/02 06:45:20;;;;;;;39.42;29.17;;;3.50;99.90;;;;;;5039246;28;20075;-76
2022/12/02 06:48:17;;;;;;;41.45;23.80;;;3.50;99.90;;;;;;5047223;28;20044;-76
2022/12/02 06:50:46;;;;;;;46.03;28.38;;;3.50;99.90;;;;;;5047378;28;20029;-76
2022/12/02 06:53:30;;;;;;;46.97;26.50;;;3.30;99.90;;;;;;5031050;28;20018;-76
2022/12/02 06:56:23;;;;;;;42.00;27.38;;;3.30;99.90;;;;;;5059100;28;20385;-77
2022/12/02 06:58:59;;;;;;;31.00;25.33;;;3.30;99.90;;;;;;5030938;28;20022;-76
2022/12/02 07:01:29;;;;;;;35.95;27.10;;;3.30;99.90;;;;;;5047496;28;20040;-76
2022/12/02 07:04:14;;;;;;;47.72;29.70;;;3.30;99.90;;;;;;5047111;28;20512;-76
2022/12/02 07:06:43;;;;;;;39.63;26.90;;;3.30;99.90;;;;;;5047625;28;20036;-76
2022/12/02 07:09:20;;;;;;;48.63;31.63;;;3.30;99.90;;;;;;5046980;28;20025;-76
2022/12/02 07:11:49;;;;;;;39.80;28.27;;;3.30;99.90;;;;;;5047260;28;20105;-76
2022/12/02 07:14:45;;;;;;;46.80;29.70;;;3.30;99.90;;;;;;5030642;28;20099;-76
2022/12/02 07:17:28;;;;;;;44.28;30.55;;;3.30;99.90;;;;;;5044434;28;20033;-76
2022/12/02 07:20:30;;;;;;;48.08;33.13;;;3.30;99.90;;;;;;5046775;28;20498;-76
2022/12/02 07:23:01;;;;;;;42.35;30.70;;;3.40;99.90;;;;;;5043289;28;20037;-76
2022/12/02 07:25:30;;;;;;;40.33;27.17;;;3.40;99.90;;;;;;5047008;28;20022;-76
2022/12/02 07:27:56;;;;;;;45.78;30.52;;;3.40;99.90;;;;;;5046829;28;20037;-76
2022/12/02 07:30:29;;;;;;;37.38;28.75;;;3.40;99.90;;;;;;5045157;28;20495;-76
2022/12/02 07:32:56;;;;;;;37.85;26.92;;;3.40;99.90;;;;;;5043740;28;20033;-76
2022/12/02 07:35:22;;;;;;;45.63;31.48;;;3.40;99.90;;;;;;5013868;28;20462;-76
2022/12/02 07:37:49;;;;;;;40.60;28.70;;;3.40;99.90;;;;;;5030454;28;20029;-76
2022/12/02 07:40:16;;;;;;;43.72;30.38;;;3.40;99.90;;;;;;5043605;28;20037;-76
2022/12/02 07:42:42;;;;;;;45.78;32.25;;;3.40;99.90;;;;;;5039377;28;20026;-76
2022/12/02 07:45:18;;;;;;;45.92;29.98;;;3.40;99.90;;;;;;5025965;28;20018;-76
2022/12/02 07:47:44;;;;;;;40.25;29.50;;;3.50;99.90;;;;;;5033764;28;20032;-76
2022/12/02 07:50:12;;;;;;;42.72;27.88;;;3.50;99.90;;;;;;5051930;28;20017;-76
2022/12/02 07:52:38;;;;;;;46.78;30.60;;;3.50;99.90;;;;;;5047602;28;20026;-76
2022/12/02 07:55:07;;;;;;;37.00;28.40;;;3.50;99.90;;;;;;5046328;28;20061;-76
2022/12/02 07:57:33;;;;;;;34.35;26.38;;;3.60;99.90;;;;;;5013471;28;20021;-76
2022/12/02 07:59:59;;;;;;;35.08;27.50;;;3.60;99.90;;;;;;5029866;28;20057;-76
2022/12/02 08:02:25;;;;;;;39.75;27.23;;;3.60;99.90;;;;;;5019998;28;20048;-76
2022/12/02 08:04:51;;;;;;;42.10;27.90;;;3.60;99.90;;;;;;5035359;28;20101;-76
2022/12/02 08:07:17;;;;;;;33.20;24.45;;;3.60;99.90;;;;;;5046380;28;20166;-76
2022/12/02 08:09:42;;;;;;;37.97;26.05;;;3.60;99.90;;;;;;5046042;28;20125;-76
2022/12/02 08:12:08;;;;;;;29.70;25.08;;;3.60;99.90;;;;;;5029551;28;20018;-75
2022/12/02 08:14:34;;;;;;;40.60;27.88;;;3.70;99.90;;;;;;5033059;28;20021;-76
2022/12/02 08:17:00;;;;;;;34.45;26.02;;;3.70;99.90;;;;;;5045669;28;20025;-76
2022/12/02 08:19:25;;;;;;;33.63;24.92;;;3.70;99.90;;;;;;5047039;28;20064;-76
2022/12/02 08:21:51;;;;;;;33.95;26.13;;;3.70;99.90;;;;;;5046013;28;20094;-76
2022/12/02 08:24:17;;;;;;;37.47;27.13;;;3.70;99.90;;;;;;5012679;28;20041;-76
2022/12/02 08:26:44;;;;;;;37.05;25.65;;;3.70;99.90;;;;;;5045815;28;20037;-76
2022/12/02 08:29:10;;;;;;;32.42;24.48;;;3.70;99.90;;;;;;5029423;28;20049;-77
2022/12/02 08:31:36;;;;;;;40.85;25.13;;;3.70;99.90;;;;;;5025698;28;20086;-76
2022/12/02 08:34:02;;;;;;;30.65;25.30;;;3.70;99.90;;;;;;5015629;28;20037;-76
2022/12/02 08:36:28;;;;;;;36.05;26.55;;;3.80;99.90;;;;;;5046968;28;20018;-76
2022/12/02 08:38:53;;;;;;;39.13;24.40;;;3.80;99.90;;;;;;5045432;28;20047;-76
2022/12/02 08:41:19;;;;;;;37.33;26.55;;;3.80;99.90;;;;;;5025810;28;20029;-76
2022/12/02 08:43:46;;;;;;;38.30;26.05;;;3.80;99.90;;;;;;5024210;28;20110;-76
2022/12/02 08:46:13;;;;;;;41.50;25.30;;;3.70;99.90;;;;;;5039065;28;20491;-76
2022/12/02 08:48:39;;;;;;;42.92;27.13;;;3.80;99.90;;;;;;5027560;28;20033;-76
2022/12/02 08:51:05;;;;;;;38.30;26.83;;;3.70;99.90;;;;;;5028976;28;20139;-75
2022/12/02 08:53:31;;;;;;;32.72;24.60;;;3.80;99.90;;;;;;5028137;28;20060;-76
2022/12/02 08:55:57;;;;;;;32.95;26.27;;;3.70;99.90;;;;;;5027158;28;20014;-76
2022/12/02 08:58:23;;;;;;;34.63;25.25;;;3.80;99.90;;;;;;5038625;28;20497;-76
2022/12/02 09:00:48;;;;;;;37.03;24.42;;;3.70;99.90;;;;;;5045153;28;20813;-76
2022/12/02 09:03:14;;;;;;;40.30;26.25;;;3.80;99.90;;;;;;5044897;28;20030;-77
2022/12/02 09:05:41;;;;;;;41.40;25.15;;;3.80;99.90;;;;;;5044330;28;20041;-77
2022/12/02 09:08:07;;;;;;;38.05;24.98;;;3.70;99.90;;;;;;5045072;28;20048;-76
2022/12/02 09:10:33;;;;;;;29.77;23.88;;;3.60;99.90;;;;;;5026741;28;20057;-77
2022/12/02 09:12:59;;;;;;;37.22;26.85;;;3.70;99.90;;;;;;5025108;28;20498;-77
2022/12/02 09:15:25;;;;;;;39.03;26.17;;;3.60;99.90;;;;;;5020943;28;20034;-76
2022/12/02 09:17:51;;;;;;;34.97;22.65;;;3.70;99.90;;;;;;5028394;28;20024;-76
2022/12/02 09:20:17;;;;;;;30.60;22.92;;;3.70;99.90;;;;;;5044071;28;20061;-76
2022/12/02 09:22:44;;;;;;;35.63;25.95;;;3.70;99.90;;;;;;5024846;28;20029;-76
2022/12/02 09:25:11;;;;;;;34.00;26.40;;;3.70;99.90;;;;;;5036446;28;20025;-76
2022/12/02 09:27:38;;;;;;;39.60;24.20;;;3.70;99.90;;;;;;5034011;28;20037;-76
2022/12/02 09:30:05;;;;;;;37.92;24.70;;;3.60;99.90;;;;;;5028908;28;20029;-76
2022/12/02 09:32:32;;;;;;;36.08;26.75;;;3.60;99.90;;;;;;5020882;28;20094;-77
2022/12/02 09:34:58;;;;;;;38.00;25.27;;;3.60;99.90;;;;;;5022182;28;20033;-76
2022/12/02 09:37:23;;;;;;;35.88;22.55;;;3.50;99.90;;;;;;5038196;28;20060;-76
2022/12/02 09:39:50;;;;;;;36.65;25.45;;;3.50;99.90;;;;;;5011610;28;20029;-77
2022/12/02 09:42:17;;;;;;;38.13;24.45;;;3.60;99.90;;;;;;5039266;28;20414;-76
2022/12/02 09:44:43;;;;;;;35.03;20.55;;;3.60;99.90;;;;;;5037231;28;20445;-77
2022/12/02 09:47:10;;;;;;;33.58;25.08;;;3.60;99.90;;;;;;5027952;28;20390;-77
2022/12/02 09:49:39;;;;;;;27.25;19.60;;;3.60;99.90;;;;;;5040297;28;20033;-76
2022/12/02 09:52:14;;;;;;;29.13;21.40;;;3.50;99.90;;;;;;5035327;28;20029;-77
2022/12/02 09:54:42;;;;;;;28.60;21.27;;;3.60;99.90;;;;;;5044716;28;20033;-77
2022/12/02 09:57:13;;;;;;;29.45;20.85;;;3.50;99.90;;;;;;5045432;28;20041;-77
2022/12/02 09:59:39;;;;;;;24.52;17.80;;;3.60;99.90;;;;;;5045406;28;20025;-76
2022/12/02 10:02:22;;;;;;;26.50;16.08;;;3.60;99.90;;;;;;5037843;28;20030;-76
2022/12/02 10:04:49;;;;;;;24.25;17.27;;;3.60;99.90;;;;;;5037198;28;20046;-76
2022/12/02 10:07:14;;;;;;;24.40;16.15;;;3.60;99.90;;;;;;5040906;28;20034;-76
2022/12/02 10:09:40;;;;;;;24.13;19.02;;;3.60;99.90;;;;;;5057235;28;20116;-77
2022/12/02 10:12:10;;;;;;;23.98;17.70;;;3.60;99.90;;;;;;5036118;28;20022;-76
2022/12/02 10:14:37;;;;;;;21.55;19.40;;;3.60;99.90;;;;;;5044457;28;20081;-76
2022/12/02 10:17:14;;;;;;;36.95;20.30;;;3.60;99.90;;;;;;5043901;28;20025;-77
2022/12/02 10:19:39;;;;;;;37.05;20.38;;;3.60;99.90;;;;;;5034252;28;20426;-77
2022/12/02 10:22:18;;;;;;;33.17;21.05;;;3.60;99.90;;;;;;5015443;28;20067;-76
2022/12/02 10:24:45;;;;;;;34.08;23.90;;;3.50;99.90;;;;;;5048330;28;20049;-76
2022/12/02 10:27:25;;;;;;;33.50;21.92;;;3.50;99.90;;;;;;5030880;28;20098;-76
2022/12/02 10:29:51;;;;;;;29.45;21.65;;;3.50;99.90;;;;;;5048097;28;20052;-76
2022/12/02 10:32:26;;;;;;;31.45;23.52;;;3.50;99.90;;;;;;5044929;28;20060;-77
2022/12/02 10:35:06;;;;;;;37.60;26.67;;;3.50;99.90;;;;;;5049335;28;20057;-77
2022/12/02 10:37:33;;;;;;;51.55;31.60;;;3.50;99.90;;;;;;5035364;28;20022;-76
2022/12/02 10:40:21;;;;;;;42.55;26.00;;;3.60;99.90;;;;;;5031291;28;20022;-76
2022/12/02 10:43:05;;;;;;;39.22;28.05;;;3.60;99.90;;;;;;5047632;28;20029;-76
2022/12/02 10:45:31;;;;;;;49.17;30.60;;;3.60;99.90;;;;;;5041981;28;20040;-76
2022/12/02 10:48:14;;;;;;;39.78;26.77;;;3.60;99.90;;;;;;5053387;28;20033;-76
2022/12/02 10:50:43;;;;;;;37.08;26.60;;;3.60;99.90;;;;;;5047889;28;20076;-76
2022/12/02 10:53:18;;;;;;;35.75;26.95;;;3.60;99.90;;;;;;5030863;28;20018;-76
2022/12/02 10:55:45;;;;;;;43.03;28.33;;;3.80;99.90;;;;;;5030827;28;20040;-77
2022/12/02 10:58:15;;;;;;;47.35;28.05;;;3.70;99.90;;;;;;5011479;28;20036;-76
2022/12/02 11:00:50;;;;;;;42.70;32.10;;;3.60;99.90;;;;;;5039019;28;20495;-77
2022/12/02 11:03:16;;;;;;;34.95;27.70;;;3.70;99.90;;;;;;5027780;28;20037;-76
2022/12/02 11:05:42;;;;;;;37.60;27.63;;;3.70;99.90;;;;;;5011204;28;20030;-76
2022/12/02 11:08:21;;;;;;;41.35;26.45;;;3.70;99.90;;;;;;5028837;28;20068;-76
2022/12/02 11:11:30;;;;;;;54.33;32.30;;;3.70;99.90;;;;;;5033033;28;20029;-76
2022/12/02 11:14:03;;;;;;;38.53;26.55;;;3.70;99.90;;;;;;5047524;28;20045;-76
2022/12/02 11:16:31;;;;;;;44.95;28.20;;;3.60;99.90;;;;;;5047382;28;20387;-76
2022/12/02 11:19:05;;;;;;;49.10;28.48;;;3.60;99.90;;;;;;5011626;28;20395;-75
2022/12/02 11:21:34;;;;;;;43.72;27.38;;;3.60;99.90;;;;;;5028886;28;20029;-76
2022/12/02 11:24:22;;;;;;;33.72;22.88;;;3.60;99.90;;;;;;5027474;28;20034;-76
2022/12/02 11:27:03;;;;;;;55.35;31.48;;;3.60;99.90;;;;;;5027461;28;20030;-76
2022/12/02 11:29:30;;;;;;;51.13;27.23;;;3.80;99.90;;;;;;5046848;28;20040;-76
2022/12/02 11:32:19;;;;;;;59.10;31.35;;;3.70;99.90;;;;;;5030691;28;20029;-76
2022/12/02 11:34:50;;;;;;;42.05;24.23;;;3.70;99.90;;;;;;5047172;28;20048;-76
2022/12/02 11:37:28;;;;;;;43.72;27.40;;;3.80;99.90;;;;;;5047272;28;20034;-76
2022/12/02 11:39:55;;;;;;;34.17;25.90;;;3.80;99.90;;;;;;5045452;28;20032;-76
2022/12/02 11:42:26;;;;;;;52.08;31.88;;;3.90;99.90;;;;;;5045039;28;20056;-76
2022/12/02 11:44:53;;;;;;;51.65;26.98;;;3.90;99.90;;;;;;5055360;28;20061;-76
2022/12/02 11:47:30;;;;;;;42.97;27.75;;;3.90;99.90;;;;;;5011075;28;20038;-76
2022/12/02 11:50:25;;;;;;;52.28;28.85;;;4.00;99.90;;;;;;5010536;28;20040;-76
2022/12/02 11:52:58;;;;;;;52.05;31.80;;;4.00;99.90;;;;;;5027092;28;20116;-76
2022/12/02 11:55:33;;;;;;;57.25;31.35;;;4.00;99.90;;;;;;5043548;28;20051;-76
2022/12/02 11:58:00;;;;;;;61.13;32.70;;;4.00;99.90;;;;;;5049925;28;20037;-75
2022/12/02 12:00:35;;;;;;;42.50;26.48;;;4.00;99.90;;;;;;5067860;28;20037;-76
2022/12/02 12:03:19;;;;;;;50.97;28.70;;;3.90;99.90;;;;;;5067907;28;20033;-76
2022/12/02 12:06:04;;;;;;;50.58;31.80;;;3.90;99.90;;;;;;5028249;28;20104;-76
2022/12/02 12:08:30;;;;;;;47.30;25.23;;;4.00;99.90;;;;;;5043292;28;20113;-76
2022/12/02 12:11:18;;;;;;;44.80;26.08;;;4.00;99.90;;;;;;5029687;28;20029;-76
2022/12/02 12:14:04;;;;;;;46.85;25.55;;;4.00;99.90;;;;;;5029067;28;20030;-76
2022/12/02 12:16:32;;;;;;;41.25;26.60;;;3.90;99.90;;;;;;5058262;28;20036;-76
2022/12/02 12:19:01;;;;;;;46.05;26.17;;;3.90;99.90;;;;;;5032367;28;20089;-76
2022/12/02 12:21:30;;;;;;;31.13;21.67;;;4.00;99.90;;;;;;5026566;28;20057;-76
2022/12/02 12:24:24;;;;;;;27.42;20.40;;;3.90;99.90;;;;;;5026236;28;20034;-76
2022/12/02 12:26:53;;;;;;;29.05;21.92;;;3.90;99.90;;;;;;5028324;28;20133;-76
2022/12/02 12:29:22;;;;;;;36.65;25.45;;;3.90;99.90;;;;;;5049361;28;20033;-77
2022/12/02 12:31:47;;;;;;;38.38;21.45;;;3.90;99.90;;;;;;5066030;28;20057;-76
2022/12/02 12:34:15;;;;;;;35.30;23.55;;;3.90;99.90;;;;;;5029355;28;20091;-76
2022/12/02 12:36:42;;;;;;;34.63;21.42;;;3.90;99.90;;;;;;5045696;28;20021;-76
2022/12/02 12:39:08;;;;;;;28.23;20.42;;;3.80;99.90;;;;;;5028468;28;20037;-76
2022/12/02 12:41:35;;;;;;;29.42;20.98;;;3.80;99.90;;;;;;5046002;28;20029;-76
2022/12/02 12:44:01;;;;;;;25.48;18.92;;;3.90;99.90;;;;;;5043940;28;20386;-76
2022/12/02 12:46:26;;;;;;;25.20;19.85;;;3.90;99.90;;;;;;5029323;28;20025;-76
2022/12/02 12:48:52;;;;;;;33.30;19.75;;;3.90;99.90;;;;;;5029293;28;20034;-76
2022/12/02 12:51:18;;;;;;;35.45;21.63;;;3.90;99.90;;;;;;5046788;28;20025;-76